sensor_id;sensor_type;location;lat;lon;timestamp;P1;durP1;ratioP1;P2;durP2;ratioP2
51312;SDS011;37397;53.226;10.400;2023-05-10T00:00:07;7.07;;;3.90;;
51312;SDS011;37397;53.226;10.400;2023-05-10T00:02:42;5.90;;;3.83;;
51312;SDS011;37397;53.226;10.400;2023-05-10T00:05:08;9.15;;;4.10;;
51312;SDS011;37397;53.226;10.400;2023-05-10T00:07:35;8.25;;;4.10;;
51312;SDS011;37397;53.226;10.400;2023-05-10T00:10:02;7.65;;;3.88;;
51312;SDS011;37397;53.226;10.400;2023-05-10T00:12:28;10.32;;;4.25;;
51312;SDS011;37397;53.226;10.400;2023-05-10T00:14:54;11.68;;;4.07;;
51312;SDS011;37397;53.226;10.400;2023-05-10T00:17:21;6.90;;;4.25;;
51312;SDS011;37397;53.226;10.400;2023-05-10T00:19:47;8.98;;;4.07;;
51312;SDS011;37397;53.226;10.400;2023-05-10T00:22:14;6.97;;;3.95;;
51312;SDS011;37397;53.226;10.400;2023-05-10T00:24:40;9.25;;;4.55;;
51312;SDS011;37397;53.226;10.400;2023-05-10T00:27:07;7.28;;;4.20;;
51312;SDS011;37397;53.226;10.400;2023-05-10T00:29:33;8.20;;;4.47;;
51312;SDS011;37397;53.226;10.400;2023-05-10T00:32:00;8.75;;;4.20;;
51312;SDS011;37397;53.226;10.400;2023-05-10T00:34:27;8.23;;;4.07;;
51312;SDS011;37397;53.226;10.400;2023-05-10T00:36:53;7.93;;;4.35;;
51312;SDS011;37397;53.226;10.400;2023-05-10T00:39:20;7.55;;;4.50;;
51312;SDS011;37397;53.226;10.400;2023-05-10T00:41:46;8.18;;;4.38;;
51312;SDS011;37397;53.226;10.400;2023-05-10T00:44:14;8.63;;;3.95;;
51312;SDS011;37397;53.226;10.400;2023-05-10T00:46:41;8.02;;;4.43;;
51312;SDS011;37397;53.226;10.400;2023-05-10T00:49:07;9.70;;;4.10;;
51312;SDS011;37397;53.226;10.400;2023-05-10T00:51:34;6.63;;;4.28;;
51312;SDS011;37397;53.226;10.400;2023-05-10T00:54:01;6.13;;;3.90;;
51312;SDS011;37397;53.226;10.400;2023-05-10T00:56:28;9.35;;;4.28;;
51312;SDS011;37397;53.226;10.400;2023-05-10T00:58:56;10.65;;;4.28;;
51312;SDS011;37397;53.226;10.400;2023-05-10T01:01:23;9.65;;;4.40;;
51312;SDS011;37397;53.226;10.400;2023-05-10T01:03:50;7.03;;;4.03;;
51312;SDS011;37397;53.226;10.400;2023-05-10T01:06:17;9.60;;;4.10;;
51312;SDS011;37397;53.226;10.400;2023-05-10T01:08:44;7.70;;;4.00;;
51312;SDS011;37397;53.226;10.400;2023-05-10T01:11:10;8.63;;;4.88;;
51312;SDS011;37397;53.226;10.400;2023-05-10T01:13:37;9.90;;;4.05;;
51312;SDS011;37397;53.226;10.400;2023-05-10T01:16:07;10.82;;;4.45;;
51312;SDS011;37397;53.226;10.400;2023-05-10T01:18:43;8.88;;;4.18;;
51312;SDS011;37397;53.226;10.400;2023-05-10T01:24:09;9.25;;;4.30;;
51312;SDS011;37397;53.226;10.400;2023-05-10T01:26:54;9.10;;;4.35;;
51312;SDS011;37397;53.226;10.400;2023-05-10T01:32:52;6.95;;;4.43;;
51312;SDS011;37397;53.226;10.400;2023-05-10T01:35:45;7.85;;;3.95;;
51312;SDS011;37397;53.226;10.400;2023-05-10T01:38:19;10.18;;;4.57;;
51312;SDS011;37397;53.226;10.400;2023-05-10T01:43:37;6.30;;;4.28;;
51312;SDS011;37397;53.226;10.400;2023-05-10T01:46:16;7.80;;;4.10;;
51312;SDS011;37397;53.226;10.400;2023-05-10T01:48:47;8.55;;;4.35;;
51312;SDS011;37397;53.226;10.400;2023-05-10T01:51:19;7.65;;;4.43;;
51312;SDS011;37397;53.226;10.400;2023-05-10T01:53:49;9.10;;;4.03;;
51312;SDS011;37397;53.226;10.400;2023-05-10T01:56:18;8.65;;;4.50;;
51312;SDS011;37397;53.226;10.400;2023-05-10T01:58:50;8.85;;;4.43;;
51312;SDS011;37397;53.226;10.400;2023-05-10T02:01:19;9.43;;;4.38;;
51312;SDS011;37397;53.226;10.400;2023-05-10T02:03:47;8.95;;;4.32;;
51312;SDS011;37397;53.226;10.400;2023-05-10T02:06:18;7.07;;;4.22;;
51312;SDS011;37397;53.226;10.400;2023-05-10T02:08:46;9.23;;;4.43;;
51312;SDS011;37397;53.226;10.400;2023-05-10T02:11:14;7.07;;;4.35;;
51312;SDS011;37397;53.226;10.400;2023-05-10T02:13:40;9.23;;;4.22;;
51312;SDS011;37397;53.226;10.400;2023-05-10T02:16:09;7.72;;;4.43;;
51312;SDS011;37397;53.226;10.400;2023-05-10T02:18:38;9.32;;;4.60;;
51312;SDS011;37397;53.226;10.400;2023-05-10T02:21:07;8.73;;;4.32;;
51312;SDS011;37397;53.226;10.400;2023-05-10T02:23:37;7.30;;;4.50;;
51312;SDS011;37397;53.226;10.400;2023-05-10T02:26:04;8.73;;;4.40;;
51312;SDS011;37397;53.226;10.400;2023-05-10T02:28:32;9.82;;;4.47;;
51312;SDS011;37397;53.226;10.400;2023-05-10T02:31:01;8.65;;;4.60;;
51312;SDS011;37397;53.226;10.400;2023-05-10T02:33:28;6.90;;;4.35;;
51312;SDS011;37397;53.226;10.400;2023-05-10T02:35:57;7.25;;;4.55;;
51312;SDS011;37397;53.226;10.400;2023-05-10T02:38:25;8.00;;;3.90;;
51312;SDS011;37397;53.226;10.400;2023-05-10T02:40:52;8.05;;;4.40;;
51312;SDS011;37397;53.226;10.400;2023-05-10T02:43:21;8.98;;;4.45;;
51312;SDS011;37397;53.226;10.400;2023-05-10T02:45:49;6.60;;;4.00;;
51312;SDS011;37397;53.226;10.400;2023-05-10T02:48:16;7.28;;;4.70;;
51312;SDS011;37397;53.226;10.400;2023-05-10T02:50:44;8.20;;;4.50;;
51312;SDS011;37397;53.226;10.400;2023-05-10T02:53:14;7.30;;;4.35;;
51312;SDS011;37397;53.226;10.400;2023-05-10T02:55:58;8.50;;;4.40;;
51312;SDS011;37397;53.226;10.400;2023-05-10T02:58:27;8.25;;;4.63;;
51312;SDS011;37397;53.226;10.400;2023-05-10T03:00:54;8.07;;;4.05;;
51312;SDS011;37397;53.226;10.400;2023-05-10T03:03:21;7.25;;;4.60;;
51312;SDS011;37397;53.226;10.400;2023-05-10T03:05:49;9.32;;;4.53;;
51312;SDS011;37397;53.226;10.400;2023-05-10T03:08:16;10.98;;;4.22;;
51312;SDS011;37397;53.226;10.400;2023-05-10T03:10:54;7.88;;;4.40;;
51312;SDS011;37397;53.226;10.400;2023-05-10T03:13:29;7.78;;;4.28;;
51312;SDS011;37397;53.226;10.400;2023-05-10T03:16:06;8.30;;;4.63;;
51312;SDS011;37397;53.226;10.400;2023-05-10T03:18:56;8.82;;;4.32;;
51312;SDS011;37397;53.226;10.400;2023-05-10T03:21:44;7.63;;;4.57;;
51312;SDS011;37397;53.226;10.400;2023-05-10T03:24:16;8.48;;;4.53;;
51312;SDS011;37397;53.226;10.400;2023-05-10T03:26:47;7.80;;;4.68;;
51312;SDS011;37397;53.226;10.400;2023-05-10T03:29:17;8.27;;;4.53;;
51312;SDS011;37397;53.226;10.400;2023-05-10T03:31:44;7.78;;;4.80;;
51312;SDS011;37397;53.226;10.400;2023-05-10T03:34:12;8.60;;;4.82;;
51312;SDS011;37397;53.226;10.400;2023-05-10T03:36:40;10.13;;;4.80;;
51312;SDS011;37397;53.226;10.400;2023-05-10T03:39:06;10.68;;;4.97;;
51312;SDS011;37397;53.226;10.400;2023-05-10T03:41:33;9.10;;;4.47;;
51312;SDS011;37397;53.226;10.400;2023-05-10T03:43:59;6.53;;;4.50;;
51312;SDS011;37397;53.226;10.400;2023-05-10T03:46:27;6.60;;;4.38;;
51312;SDS011;37397;53.226;10.400;2023-05-10T03:48:54;10.77;;;4.93;;
51312;SDS011;37397;53.226;10.400;2023-05-10T03:51:20;7.53;;;4.43;;
51312;SDS011;37397;53.226;10.400;2023-05-10T03:53:47;6.82;;;4.43;;
51312;SDS011;37397;53.226;10.400;2023-05-10T03:56:13;8.32;;;4.30;;
51312;SDS011;37397;53.226;10.400;2023-05-10T03:58:40;8.52;;;4.57;;
51312;SDS011;37397;53.226;10.400;2023-05-10T04:01:06;7.70;;;4.30;;
51312;SDS011;37397;53.226;10.400;2023-05-10T04:03:33;8.38;;;4.65;;
51312;SDS011;37397;53.226;10.400;2023-05-10T04:06:01;8.27;;;4.55;;
51312;SDS011;37397;53.226;10.400;2023-05-10T04:08:28;8.23;;;4.78;;
51312;SDS011;37397;53.226;10.400;2023-05-10T04:11:05;6.30;;;4.18;;
51312;SDS011;37397;53.226;10.400;2023-05-10T04:13:33;6.65;;;4.43;;
51312;SDS011;37397;53.226;10.400;2023-05-10T04:16:00;8.02;;;4.43;;
51312;SDS011;37397;53.226;10.400;2023-05-10T04:18:27;7.35;;;4.47;;
51312;SDS011;37397;53.226;10.400;2023-05-10T04:20:53;9.57;;;4.75;;
51312;SDS011;37397;53.226;10.400;2023-05-10T04:23:20;8.40;;;4.30;;
51312;SDS011;37397;53.226;10.400;2023-05-10T04:25:46;7.03;;;4.70;;
51312;SDS011;37397;53.226;10.400;2023-05-10T04:28:13;8.82;;;5.10;;
51312;SDS011;37397;53.226;10.400;2023-05-10T04:30:39;8.50;;;5.28;;
51312;SDS011;37397;53.226;10.400;2023-05-10T04:33:06;7.65;;;4.60;;
51312;SDS011;37397;53.226;10.400;2023-05-10T04:35:33;10.68;;;4.50;;
51312;SDS011;37397;53.226;10.400;2023-05-10T04:38:00;8.48;;;4.90;;
51312;SDS011;37397;53.226;10.400;2023-05-10T04:40:27;7.95;;;4.60;;
51312;SDS011;37397;53.226;10.400;2023-05-10T04:42:53;8.70;;;4.60;;
51312;SDS011;37397;53.226;10.400;2023-05-10T04:45:20;10.15;;;4.75;;
51312;SDS011;37397;53.226;10.400;2023-05-10T04:47:47;10.25;;;4.55;;
51312;SDS011;37397;53.226;10.400;2023-05-10T04:50:13;8.25;;;4.88;;
51312;SDS011;37397;53.226;10.400;2023-05-10T04:52:40;10.48;;;4.70;;
51312;SDS011;37397;53.226;10.400;2023-05-10T04:55:06;9.23;;;4.95;;
51312;SDS011;37397;53.226;10.400;2023-05-10T04:57:35;7.30;;;4.57;;
51312;SDS011;37397;53.226;10.400;2023-05-10T05:00:02;9.23;;;4.53;;
51312;SDS011;37397;53.226;10.400;2023-05-10T05:02:29;8.88;;;5.00;;
51312;SDS011;37397;53.226;10.400;2023-05-10T05:04:56;9.30;;;5.03;;
51312;SDS011;37397;53.226;10.400;2023-05-10T05:07:23;7.55;;;4.43;;
51312;SDS011;37397;53.226;10.400;2023-05-10T05:09:50;7.60;;;4.10;;
51312;SDS011;37397;53.226;10.400;2023-05-10T05:12:16;7.85;;;4.30;;
51312;SDS011;37397;53.226;10.400;2023-05-10T05:14:43;7.47;;;4.53;;
51312;SDS011;37397;53.226;10.400;2023-05-10T05:17:09;9.13;;;4.70;;
51312;SDS011;37397;53.226;10.400;2023-05-10T05:19:36;9.25;;;4.78;;
51312;SDS011;37397;53.226;10.400;2023-05-10T05:22:03;9.45;;;4.70;;
51312;SDS011;37397;53.226;10.400;2023-05-10T05:24:29;7.47;;;4.13;;
51312;SDS011;37397;53.226;10.400;2023-05-10T05:27:01;8.70;;;4.57;;
51312;SDS011;37397;53.226;10.400;2023-05-10T05:29:27;6.60;;;4.15;;
51312;SDS011;37397;53.226;10.400;2023-05-10T05:31:54;8.02;;;4.35;;
51312;SDS011;37397;53.226;10.400;2023-05-10T05:34:21;9.68;;;4.80;;
51312;SDS011;37397;53.226;10.400;2023-05-10T05:36:48;6.50;;;3.83;;
51312;SDS011;37397;53.226;10.400;2023-05-10T05:39:14;7.40;;;4.25;;
51312;SDS011;37397;53.226;10.400;2023-05-10T05:41:41;10.65;;;5.20;;
51312;SDS011;37397;53.226;10.400;2023-05-10T05:44:08;9.15;;;4.25;;
51312;SDS011;37397;53.226;10.400;2023-05-10T05:46:35;7.82;;;4.30;;
51312;SDS011;37397;53.226;10.400;2023-05-10T05:49:01;7.95;;;4.25;;
51312;SDS011;37397;53.226;10.400;2023-05-10T05:51:28;7.45;;;4.70;;
51312;SDS011;37397;53.226;10.400;2023-05-10T05:53:54;8.73;;;4.47;;
51312;SDS011;37397;53.226;10.400;2023-05-10T05:56:21;9.13;;;4.45;;
51312;SDS011;37397;53.226;10.400;2023-05-10T05:58:50;9.55;;;4.25;;
51312;SDS011;37397;53.226;10.400;2023-05-10T06:01:17;9.13;;;4.43;;
51312;SDS011;37397;53.226;10.400;2023-05-10T06:03:43;7.60;;;4.50;;
51312;SDS011;37397;53.226;10.400;2023-05-10T06:06:10;9.57;;;4.10;;
51312;SDS011;37397;53.226;10.400;2023-05-10T06:08:37;11.80;;;4.13;;
51312;SDS011;37397;53.226;10.400;2023-05-10T06:11:04;6.45;;;4.25;;
51312;SDS011;37397;53.226;10.400;2023-05-10T06:13:30;8.18;;;4.20;;
51312;SDS011;37397;53.226;10.400;2023-05-10T06:15:58;6.75;;;4.13;;
51312;SDS011;37397;53.226;10.400;2023-05-10T06:18:25;8.45;;;3.83;;
51312;SDS011;37397;53.226;10.400;2023-05-10T06:20:52;7.55;;;4.18;;
51312;SDS011;37397;53.226;10.400;2023-05-10T06:23:18;6.18;;;3.80;;
51312;SDS011;37397;53.226;10.400;2023-05-10T06:25:44;13.48;;;4.88;;
51312;SDS011;37397;53.226;10.400;2023-05-10T06:28:11;10.55;;;4.32;;
51312;SDS011;37397;53.226;10.400;2023-05-10T06:30:37;6.90;;;4.10;;
51312;SDS011;37397;53.226;10.400;2023-05-10T06:33:04;9.80;;;4.57;;
51312;SDS011;37397;53.226;10.400;2023-05-10T06:35:31;8.57;;;4.50;;
51312;SDS011;37397;53.226;10.400;2023-05-10T06:37:59;9.60;;;4.25;;
51312;SDS011;37397;53.226;10.400;2023-05-10T06:40:26;8.32;;;4.20;;
51312;SDS011;37397;53.226;10.400;2023-05-10T06:42:52;6.40;;;4.38;;
51312;SDS011;37397;53.226;10.400;2023-05-10T06:45:19;7.35;;;4.20;;
51312;SDS011;37397;53.226;10.400;2023-05-10T06:47:46;7.75;;;4.32;;
51312;SDS011;37397;53.226;10.400;2023-05-10T06:50:12;6.95;;;3.58;;
51312;SDS011;37397;53.226;10.400;2023-05-10T06:52:39;11.98;;;4.38;;
51312;SDS011;37397;53.226;10.400;2023-05-10T06:55:05;7.53;;;3.83;;
51312;SDS011;37397;53.226;10.400;2023-05-10T06:57:32;7.07;;;3.95;;
51312;SDS011;37397;53.226;10.400;2023-05-10T06:59:59;5.65;;;4.10;;
51312;SDS011;37397;53.226;10.400;2023-05-10T07:02:26;7.47;;;4.13;;
51312;SDS011;37397;53.226;10.400;2023-05-10T07:04:52;7.55;;;3.78;;
51312;SDS011;37397;53.226;10.400;2023-05-10T07:07:19;8.45;;;4.30;;
51312;SDS011;37397;53.226;10.400;2023-05-10T07:09:46;6.78;;;4.00;;
51312;SDS011;37397;53.226;10.400;2023-05-10T07:12:12;7.13;;;3.60;;
51312;SDS011;37397;53.226;10.400;2023-05-10T07:14:41;6.90;;;4.22;;
51312;SDS011;37397;53.226;10.400;2023-05-10T07:17:08;6.47;;;4.47;;
51312;SDS011;37397;53.226;10.400;2023-05-10T07:19:35;6.75;;;4.30;;
51312;SDS011;37397;53.226;10.400;2023-05-10T07:22:02;6.85;;;4.25;;
51312;SDS011;37397;53.226;10.400;2023-05-10T07:24:28;7.68;;;4.40;;
51312;SDS011;37397;53.226;10.400;2023-05-10T07:26:55;6.95;;;4.35;;
51312;SDS011;37397;53.226;10.400;2023-05-10T07:29:21;8.20;;;4.50;;
51312;SDS011;37397;53.226;10.400;2023-05-10T07:31:48;7.00;;;4.15;;
51312;SDS011;37397;53.226;10.400;2023-05-10T07:34:14;6.70;;;4.18;;
51312;SDS011;37397;53.226;10.400;2023-05-10T07:36:41;6.65;;;4.18;;
51312;SDS011;37397;53.226;10.400;2023-05-10T07:39:07;7.63;;;4.43;;
51312;SDS011;37397;53.226;10.400;2023-05-10T07:41:34;8.55;;;4.28;;
51312;SDS011;37397;53.226;10.400;2023-05-10T07:44:01;6.15;;;3.70;;
51312;SDS011;37397;53.226;10.400;2023-05-10T07:46:27;7.72;;;4.25;;
51312;SDS011;37397;53.226;10.400;2023-05-10T07:48:54;5.63;;;4.03;;
51312;SDS011;37397;53.226;10.400;2023-05-10T07:51:21;6.68;;;4.07;;
51312;SDS011;37397;53.226;10.400;2023-05-10T07:53:48;9.75;;;4.53;;
51312;SDS011;37397;53.226;10.400;2023-05-10T07:56:21;7.53;;;4.15;;
51312;SDS011;37397;53.226;10.400;2023-05-10T07:58:58;7.80;;;4.10;;
51312;SDS011;37397;53.226;10.400;2023-05-10T08:01:29;8.88;;;4.05;;
51312;SDS011;37397;53.226;10.400;2023-05-10T08:03:56;7.15;;;4.38;;
51312;SDS011;37397;53.226;10.400;2023-05-10T08:06:23;7.55;;;4.18;;
51312;SDS011;37397;53.226;10.400;2023-05-10T08:08:49;7.47;;;4.10;;
51312;SDS011;37397;53.226;10.400;2023-05-10T08:11:16;9.30;;;4.15;;
51312;SDS011;37397;53.226;10.400;2023-05-10T08:13:44;8.55;;;4.25;;
51312;SDS011;37397;53.226;10.400;2023-05-10T08:16:11;7.25;;;3.85;;
51312;SDS011;37397;53.226;10.400;2023-05-10T08:18:37;7.88;;;4.53;;
51312;SDS011;37397;53.226;10.400;2023-05-10T08:21:05;7.60;;;4.05;;
51312;SDS011;37397;53.226;10.400;2023-05-10T08:23:32;9.13;;;4.70;;
51312;SDS011;37397;53.226;10.400;2023-05-10T08:25:59;9.70;;;4.65;;
51312;SDS011;37397;53.226;10.400;2023-05-10T08:28:26;8.00;;;4.88;;
51312;SDS011;37397;53.226;10.400;2023-05-10T08:30:53;8.18;;;4.47;;
51312;SDS011;37397;53.226;10.400;2023-05-10T08:33:19;6.80;;;4.75;;
51312;SDS011;37397;53.226;10.400;2023-05-10T08:35:46;11.30;;;4.25;;
51312;SDS011;37397;53.226;10.400;2023-05-10T08:38:12;7.10;;;4.97;;
51312;SDS011;37397;53.226;10.400;2023-05-10T08:40:42;7.93;;;4.38;;
51312;SDS011;37397;53.226;10.400;2023-05-10T08:43:11;9.32;;;4.65;;
51312;SDS011;37397;53.226;10.400;2023-05-10T08:45:40;7.80;;;3.97;;
51312;SDS011;37397;53.226;10.400;2023-05-10T08:48:10;8.45;;;4.70;;
51312;SDS011;37397;53.226;10.400;2023-05-10T08:50:38;8.85;;;4.50;;
51312;SDS011;37397;53.226;10.400;2023-05-10T08:53:09;8.10;;;4.43;;
51312;SDS011;37397;53.226;10.400;2023-05-10T08:55:37;8.77;;;4.40;;
51312;SDS011;37397;53.226;10.400;2023-05-10T08:58:05;10.90;;;4.93;;
51312;SDS011;37397;53.226;10.400;2023-05-10T09:00:32;8.13;;;4.50;;
51312;SDS011;37397;53.226;10.400;2023-05-10T09:02:59;10.00;;;4.97;;
51312;SDS011;37397;53.226;10.400;2023-05-10T09:05:26;6.88;;;4.53;;
51312;SDS011;37397;53.226;10.400;2023-05-10T09:07:53;9.63;;;4.75;;
51312;SDS011;37397;53.226;10.400;2023-05-10T09:10:20;7.72;;;5.00;;
51312;SDS011;37397;53.226;10.400;2023-05-10T09:12:47;6.88;;;4.43;;
51312;SDS011;37397;53.226;10.400;2023-05-10T09:15:15;9.05;;;5.00;;
51312;SDS011;37397;53.226;10.400;2023-05-10T09:17:42;7.65;;;4.57;;
51312;SDS011;37397;53.226;10.400;2023-05-10T09:20:10;9.77;;;4.50;;
51312;SDS011;37397;53.226;10.400;2023-05-10T09:22:37;8.98;;;4.80;;
51312;SDS011;37397;53.226;10.400;2023-05-10T09:25:11;9.13;;;4.43;;
51312;SDS011;37397;53.226;10.400;2023-05-10T09:27:39;8.05;;;4.47;;
51312;SDS011;37397;53.226;10.400;2023-05-10T09:30:06;7.93;;;4.43;;
51312;SDS011;37397;53.226;10.400;2023-05-10T09:32:38;5.70;;;3.80;;
51312;SDS011;37397;53.226;10.400;2023-05-10T09:35:15;7.97;;;4.40;;
51312;SDS011;37397;53.226;10.400;2023-05-10T09:37:44;7.45;;;4.55;;
51312;SDS011;37397;53.226;10.400;2023-05-10T09:40:14;8.32;;;4.70;;
51312;SDS011;37397;53.226;10.400;2023-05-10T09:42:52;7.78;;;4.43;;
51312;SDS011;37397;53.226;10.400;2023-05-10T09:45:21;9.27;;;4.78;;
51312;SDS011;37397;53.226;10.400;2023-05-10T09:47:49;8.10;;;4.90;;
51312;SDS011;37397;53.226;10.400;2023-05-10T09:50:15;6.47;;;4.47;;
51312;SDS011;37397;53.226;10.400;2023-05-10T09:52:46;8.57;;;4.97;;
51312;SDS011;37397;53.226;10.400;2023-05-10T09:55:13;8.32;;;4.80;;
51312;SDS011;37397;53.226;10.400;2023-05-10T09:57:40;7.03;;;4.40;;
51312;SDS011;37397;53.226;10.400;2023-05-10T10:00:07;8.25;;;4.80;;
51312;SDS011;37397;53.226;10.400;2023-05-10T10:02:39;7.13;;;4.47;;
51312;SDS011;37397;53.226;10.400;2023-05-10T10:05:06;9.15;;;5.10;;
51312;SDS011;37397;53.226;10.400;2023-05-10T10:07:33;8.27;;;4.70;;
51312;SDS011;37397;53.226;10.400;2023-05-10T10:10:01;7.00;;;4.20;;
51312;SDS011;37397;53.226;10.400;2023-05-10T10:12:28;6.40;;;3.80;;
51312;SDS011;37397;53.226;10.400;2023-05-10T10:14:55;6.15;;;4.15;;
51312;SDS011;37397;53.226;10.400;2023-05-10T10:17:22;6.95;;;4.20;;
51312;SDS011;37397;53.226;10.400;2023-05-10T10:19:54;6.75;;;4.45;;
51312;SDS011;37397;53.226;10.400;2023-05-10T10:22:21;9.05;;;4.78;;
51312;SDS011;37397;53.226;10.400;2023-05-10T10:24:48;7.35;;;4.60;;
51312;SDS011;37397;53.226;10.400;2023-05-10T10:27:24;7.80;;;4.50;;
51312;SDS011;37397;53.226;10.400;2023-05-10T10:30:18;7.22;;;4.72;;
51312;SDS011;37397;53.226;10.400;2023-05-10T10:35:54;6.72;;;4.65;;
51312;SDS011;37397;53.226;10.400;2023-05-10T10:38:24;7.43;;;4.55;;
51312;SDS011;37397;53.226;10.400;2023-05-10T10:49:51;7.32;;;5.05;;
51312;SDS011;37397;53.226;10.400;2023-05-10T10:52:25;8.18;;;5.28;;
51312;SDS011;37397;53.226;10.400;2023-05-10T11:00:27;8.57;;;5.18;;
51312;SDS011;37397;53.226;10.400;2023-05-10T11:07:54;9.23;;;5.10;;
51312;SDS011;37397;53.226;10.400;2023-05-10T11:10:22;8.60;;;5.40;;
51312;SDS011;37397;53.226;10.400;2023-05-10T11:12:51;7.38;;;5.07;;
51312;SDS011;37397;53.226;10.400;2023-05-10T11:15:19;9.48;;;5.25;;
51312;SDS011;37397;53.226;10.400;2023-05-10T11:17:47;10.30;;;5.22;;
51312;SDS011;37397;53.226;10.400;2023-05-10T11:20:18;10.70;;;5.90;;
51312;SDS011;37397;53.226;10.400;2023-05-10T11:22:52;8.05;;;5.22;;
51312;SDS011;37397;53.226;10.400;2023-05-10T11:25:19;7.97;;;5.40;;
51312;SDS011;37397;53.226;10.400;2023-05-10T11:27:49;9.68;;;5.65;;
51312;SDS011;37397;53.226;10.400;2023-05-10T11:30:16;9.60;;;6.00;;
51312;SDS011;37397;53.226;10.400;2023-05-10T11:32:43;6.57;;;5.00;;
51312;SDS011;37397;53.226;10.400;2023-05-10T11:35:11;8.00;;;5.40;;
51312;SDS011;37397;53.226;10.400;2023-05-10T11:37:41;10.80;;;5.70;;
51312;SDS011;37397;53.226;10.400;2023-05-10T11:40:09;7.65;;;5.65;;
51312;SDS011;37397;53.226;10.400;2023-05-10T11:42:38;9.20;;;6.07;;
51312;SDS011;37397;53.226;10.400;2023-05-10T11:45:05;9.30;;;6.13;;
51312;SDS011;37397;53.226;10.400;2023-05-10T11:47:32;9.82;;;6.30;;
51312;SDS011;37397;53.226;10.400;2023-05-10T11:49:58;8.70;;;5.47;;
51312;SDS011;37397;53.226;10.400;2023-05-10T11:52:26;9.60;;;5.13;;
51312;SDS011;37397;53.226;10.400;2023-05-10T11:54:53;9.85;;;6.30;;
51312;SDS011;37397;53.226;10.400;2023-05-10T11:57:20;8.88;;;6.28;;
51312;SDS011;37397;53.226;10.400;2023-05-10T11:59:55;8.88;;;6.47;;
51312;SDS011;37397;53.226;10.400;2023-05-10T12:02:23;10.65;;;6.22;;
51312;SDS011;37397;53.226;10.400;2023-05-10T12:04:50;9.48;;;6.88;;
51312;SDS011;37397;53.226;10.400;2023-05-10T12:07:17;8.73;;;5.97;;
51312;SDS011;37397;53.226;10.400;2023-05-10T12:09:44;8.15;;;5.43;;
51312;SDS011;37397;53.226;10.400;2023-05-10T12:12:17;9.68;;;6.00;;
51312;SDS011;37397;53.226;10.400;2023-05-10T12:14:43;9.32;;;5.85;;
51312;SDS011;37397;53.226;10.400;2023-05-10T12:17:13;9.70;;;6.13;;
51312;SDS011;37397;53.226;10.400;2023-05-10T12:19:39;11.68;;;6.35;;
51312;SDS011;37397;53.226;10.400;2023-05-10T12:22:07;7.65;;;5.53;;
51312;SDS011;37397;53.226;10.400;2023-05-10T12:24:34;8.10;;;5.70;;
51312;SDS011;37397;53.226;10.400;2023-05-10T12:27:04;7.35;;;5.60;;
51312;SDS011;37397;53.226;10.400;2023-05-10T12:29:31;7.88;;;5.70;;
51312;SDS011;37397;53.226;10.400;2023-05-10T12:31:58;9.95;;;5.85;;
51312;SDS011;37397;53.226;10.400;2023-05-10T12:34:27;7.63;;;5.60;;
51312;SDS011;37397;53.226;10.400;2023-05-10T12:36:58;8.60;;;6.35;;
51312;SDS011;37397;53.226;10.400;2023-05-10T12:39:26;9.32;;;6.00;;
51312;SDS011;37397;53.226;10.400;2023-05-10T12:41:52;9.35;;;5.80;;
51312;SDS011;37397;53.226;10.400;2023-05-10T12:44:19;9.07;;;6.40;;
51312;SDS011;37397;53.226;10.400;2023-05-10T12:46:45;9.25;;;5.40;;
51312;SDS011;37397;53.226;10.400;2023-05-10T12:49:12;9.30;;;5.63;;
51312;SDS011;37397;53.226;10.400;2023-05-10T12:51:38;8.52;;;5.97;;
51312;SDS011;37397;53.226;10.400;2023-05-10T12:54:05;8.02;;;5.80;;
51312;SDS011;37397;53.226;10.400;2023-05-10T12:56:32;9.07;;;5.43;;
51312;SDS011;37397;53.226;10.400;2023-05-10T12:58:58;8.05;;;5.65;;
51312;SDS011;37397;53.226;10.400;2023-05-10T13:01:24;10.70;;;5.70;;
51312;SDS011;37397;53.226;10.400;2023-05-10T13:03:51;7.60;;;5.57;;
51312;SDS011;37397;53.226;10.400;2023-05-10T13:06:17;10.45;;;6.30;;
51312;SDS011;37397;53.226;10.400;2023-05-10T13:08:44;8.88;;;5.53;;
51312;SDS011;37397;53.226;10.400;2023-05-10T13:11:11;8.60;;;4.95;;
51312;SDS011;37397;53.226;10.400;2023-05-10T13:13:37;7.90;;;5.30;;
51312;SDS011;37397;53.226;10.400;2023-05-10T13:16:04;7.07;;;5.47;;
51312;SDS011;37397;53.226;10.400;2023-05-10T13:18:31;6.88;;;4.60;;
51312;SDS011;37397;53.226;10.400;2023-05-10T13:20:57;7.88;;;5.57;;
51312;SDS011;37397;53.226;10.400;2023-05-10T13:23:24;8.23;;;5.65;;
51312;SDS011;37397;53.226;10.400;2023-05-10T13:25:50;6.97;;;5.00;;
51312;SDS011;37397;53.226;10.400;2023-05-10T13:28:16;7.05;;;4.57;;
51312;SDS011;37397;53.226;10.400;2023-05-10T13:30:43;8.07;;;5.80;;
51312;SDS011;37397;53.226;10.400;2023-05-10T13:33:09;8.38;;;5.28;;
51312;SDS011;37397;53.226;10.400;2023-05-10T13:35:36;7.53;;;4.68;;
51312;SDS011;37397;53.226;10.400;2023-05-10T13:38:02;6.07;;;4.13;;
51312;SDS011;37397;53.226;10.400;2023-05-10T13:40:29;5.75;;;4.07;;
51312;SDS011;37397;53.226;10.400;2023-05-10T13:42:55;5.80;;;4.25;;
51312;SDS011;37397;53.226;10.400;2023-05-10T13:45:22;6.00;;;4.20;;
51312;SDS011;37397;53.226;10.400;2023-05-10T13:47:48;5.88;;;3.90;;
51312;SDS011;37397;53.226;10.400;2023-05-10T13:50:15;6.28;;;4.05;;
51312;SDS011;37397;53.226;10.400;2023-05-10T13:52:42;6.78;;;4.65;;
51312;SDS011;37397;53.226;10.400;2023-05-10T13:55:09;6.38;;;3.97;;
51312;SDS011;37397;53.226;10.400;2023-05-10T13:57:38;5.65;;;4.00;;
51312;SDS011;37397;53.226;10.400;2023-05-10T14:00:05;5.85;;;3.90;;
51312;SDS011;37397;53.226;10.400;2023-05-10T14:02:33;6.70;;;4.25;;
51312;SDS011;37397;53.226;10.400;2023-05-10T14:04:59;5.28;;;4.03;;
51312;SDS011;37397;53.226;10.400;2023-05-10T14:07:26;4.95;;;3.85;;
51312;SDS011;37397;53.226;10.400;2023-05-10T14:09:52;5.10;;;3.70;;
51312;SDS011;37397;53.226;10.400;2023-05-10T14:12:19;4.25;;;3.13;;
51312;SDS011;37397;53.226;10.400;2023-05-10T14:14:45;5.03;;;3.50;;
51312;SDS011;37397;53.226;10.400;2023-05-10T14:17:12;5.45;;;3.85;;
51312;SDS011;37397;53.226;10.400;2023-05-10T14:19:38;5.47;;;3.58;;
51312;SDS011;37397;53.226;10.400;2023-05-10T14:22:05;5.18;;;3.70;;
51312;SDS011;37397;53.226;10.400;2023-05-10T14:24:32;4.63;;;3.30;;
51312;SDS011;37397;53.226;10.400;2023-05-10T14:26:58;5.43;;;3.72;;
51312;SDS011;37397;53.226;10.400;2023-05-10T14:29:25;6.53;;;3.92;;
51312;SDS011;37397;53.226;10.400;2023-05-10T14:31:51;4.53;;;3.20;;
51312;SDS011;37397;53.226;10.400;2023-05-10T14:34:18;4.57;;;3.00;;
51312;SDS011;37397;53.226;10.400;2023-05-10T14:36:44;6.10;;;3.30;;
51312;SDS011;37397;53.226;10.400;2023-05-10T14:39:11;4.22;;;2.92;;
51312;SDS011;37397;53.226;10.400;2023-05-10T14:41:39;5.20;;;3.60;;
51312;SDS011;37397;53.226;10.400;2023-05-10T14:44:07;4.00;;;3.00;;
51312;SDS011;37397;53.226;10.400;2023-05-10T14:46:34;4.15;;;3.08;;
51312;SDS011;37397;53.226;10.400;2023-05-10T14:49:01;6.03;;;3.35;;
51312;SDS011;37397;53.226;10.400;2023-05-10T14:51:27;4.00;;;2.50;;
51312;SDS011;37397;53.226;10.400;2023-05-10T14:53:54;3.35;;;2.70;;
51312;SDS011;37397;53.226;10.400;2023-05-10T14:56:20;3.72;;;2.58;;
51312;SDS011;37397;53.226;10.400;2023-05-10T14:58:49;5.38;;;2.70;;
51312;SDS011;37397;53.226;10.400;2023-05-10T15:01:15;5.10;;;2.80;;
51312;SDS011;37397;53.226;10.400;2023-05-10T15:03:42;3.60;;;2.38;;
51312;SDS011;37397;53.226;10.400;2023-05-10T15:06:09;3.88;;;2.60;;
51312;SDS011;37397;53.226;10.400;2023-05-10T15:08:36;3.38;;;2.40;;